Time;durP1;ratioP1;P1;durP2;ratioP2;P2;SDS_P1;SDS_P2;PMS_P1;PMS_P2;Temp;Humidity;BMP_temperature;BMP_pressure;BME280_temperature;BME280_humidity;BME280_pressure;Samples;Min_cycle;Max_cycle;Signal;HPM_P1;HPM_P2
2022/03/16 00:00:56;;;;;;;63.53;37.00;;;11.50;99.60;;;;;;12905691;23;20182;-80
2022/03/16 00:05:58;;;;;;;48.17;24.90;;;10.20;96.50;;;;;;12924722;23;20190;-80
2022/03/16 00:11:01;;;;;;;38.77;24.53;;;10.40;99.70;;;;;;12905011;23;20241;-80
2022/03/16 00:16:03;;;;;;;68.10;36.53;;;10.00;99.90;;;;;;12906117;23;20286;-80
2022/03/16 00:21:06;;;;;;;67.77;36.80;;;8.60;99.90;;;;;;12879725;23;20278;-80
2022/03/16 00:26:08;;;;;;;62.87;36.73;;;7.60;99.90;;;;;;12907466;23;20596;-80
2022/03/16 00:31:11;;;;;;;58.70;33.17;;;8.60;99.90;;;;;;12909433;23;20168;-80
2022/03/16 00:36:14;;;;;;;53.23;31.07;;;8.50;99.90;;;;;;12907345;23;20174;-80
2022/03/16 00:41:17;;;;;;;54.47;30.30;;;9.00;99.90;;;;;;12905546;23;20181;-80
2022/03/16 00:46:20;;;;;;;56.93;33.57;;;9.00;99.90;;;;;;12905022;23;20746;-80
2022/03/16 00:51:22;;;;;;;46.40;25.57;;;9.70;99.90;;;;;;12905849;23;20231;-80
2022/03/16 00:56:25;;;;;;;49.63;29.43;;;10.30;99.90;;;;;;12904433;23;20177;-80
2022/03/16 01:01:28;;;;;;;16.70;12.57;;;10.20;99.90;;;;;;12906689;23;20205;-80
2022/03/16 01:06:31;;;;;;;17.43;11.03;;;10.30;99.90;;;;;;12914089;23;20202;-80
2022/03/16 01:11:33;;;;;;;17.07;11.13;;;11.70;99.90;;;;;;12915553;23;20621;-80
2022/03/16 01:16:39;;;;;;;36.60;23.13;;;12.70;96.10;;;;;;12914876;23;20208;-80
2022/03/16 01:21:42;;;;;;;21.77;12.57;;;12.90;91.20;;;;;;12914896;23;20629;-80
2022/03/16 01:26:45;;;;;;;41.13;25.13;;;12.70;93.90;;;;;;12915033;23;20533;-80
2022/03/16 01:31:47;;;;;;;45.57;27.63;;;11.50;91.90;;;;;;12916689;23;20171;-80
2022/03/16 01:36:50;;;;;;;39.97;24.73;;;10.20;95.50;;;;;;12932662;23;20166;-80
2022/03/16 01:41:54;;;;;;;27.07;16.80;;;8.90;99.90;;;;;;12915093;23;20628;-80
2022/03/16 01:46:56;;;;;;;53.63;30.07;;;9.60;99.90;;;;;;12914527;23;20205;-80
2022/03/16 01:51:59;;;;;;;38.10;22.07;;;8.40;99.90;;;;;;12890381;23;20169;-80
2022/03/16 01:57:03;;;;;;;49.10;27.10;;;8.40;99.90;;;;;;12889511;23;20172;-80
2022/03/16 02:02:06;;;;;;;18.40;12.90;;;9.30;99.90;;;;;;12914853;23;20176;-80
2022/03/16 02:07:10;;;;;;;44.10;27.40;;;9.80;99.90;;;;;;12914539;23;20202;-80
2022/03/16 02:12:13;;;;;;;49.83;28.13;;;8.80;99.90;;;;;;12916203;23;20169;-80
2022/03/16 02:17:15;;;;;;;54.27;30.80;;;7.90;99.90;;;;;;12916711;23;20181;-80
2022/03/16 02:22:18;;;;;;;61.03;34.40;;;7.30;99.90;;;;;;12918100;23;20182;-80
2022/03/16 02:27:20;;;;;;;45.07;27.13;;;7.10;99.90;;;;;;12917872;23;20225;-80
2022/03/16 02:32:23;;;;;;;21.57;13.57;;;7.20;99.90;;;;;;12918424;23;20168;-80
2022/03/16 02:37:25;;;;;;;33.17;19.93;;;8.50;99.90;;;;;;12920224;23;20191;-80
2022/03/16 02:42:28;;;;;;;44.13;26.40;;;8.50;99.90;;;;;;12938256;23;20237;-80
2022/03/16 02:47:30;;;;;;;52.27;30.77;;;8.30;99.90;;;;;;12920411;23;20242;-80
2022/03/16 02:52:33;;;;;;;33.67;21.07;;;9.10;99.90;;;;;;12919801;23;20493;-81
2022/03/16 02:57:37;;;;;;;46.77;29.30;;;10.10;99.90;;;;;;12917708;23;20174;-80
2022/03/16 03:02:41;;;;;;;46.60;26.40;;;9.50;99.90;;;;;;12936783;23;20636;-80
2022/03/16 03:07:43;;;;;;;37.53;22.17;;;10.70;99.90;;;;;;12919363;23;20166;-80
2022/03/16 03:12:46;;;;;;;17.60;11.67;;;;;;;;;;12916630;23;20181;-80
2022/03/16 03:17:48;;;;;;;36.30;21.77;;;10.90;99.90;;;;;;12919469;22;20505;-80
2022/03/16 03:22:51;;;;;;;51.03;30.07;;;11.30;98.10;;;;;;12916308;23;20237;-80
2022/03/16 03:27:54;;;;;;;63.30;35.53;;;11.60;94.50;;;;;;12917633;23;20577;-80
2022/03/16 03:32:56;;;;;;;21.27;13.73;;;10.60;94.70;;;;;;12918480;23;20173;-81
2022/03/16 03:37:59;;;;;;;57.10;32.60;;;10.90;98.60;;;;;;12935546;23;20494;-80
2022/03/16 03:43:01;;;;;;;51.77;31.70;;;10.60;95.00;;;;;;12916348;23;20649;-80
2022/03/16 03:48:04;;;;;;;58.43;35.00;;;10.10;98.00;;;;;;12918658;23;20162;-80
2022/03/16 03:53:06;;;;;;;50.47;28.30;;;10.60;96.00;;;;;;12916084;23;20243;-80
2022/03/16 03:58:09;;;;;;;45.90;29.43;;;10.10;97.70;;;;;;12916303;23;20668;-80
2022/03/16 04:03:11;;;;;;;26.17;14.40;;;10.80;96.60;;;;;;12917957;23;20529;-80
2022/03/16 04:08:14;;;;;;;45.87;26.97;;;10.60;99.90;;;;;;12917338;23;20163;-80
2022/03/16 04:13:17;;;;;;;34.83;20.73;;;11.20;95.70;;;;;;12917759;23;20228;-80
2022/03/16 04:18:19;;;;;;;38.60;23.93;;;11.20;96.90;;;;;;12917866;23;20534;-80
2022/03/16 04:23:22;;;;;;;24.83;14.23;;;11.00;93.40;;;;;;12914351;23;20256;-80
2022/03/16 04:28:24;;;;;;;58.70;35.00;;;11.00;96.70;;;;;;12890411;23;20175;-80
2022/03/16 04:33:28;;;;;;;29.60;18.53;;;11.50;91.50;;;;;;12936140;23;20513;-80
2022/03/16 04:38:31;;;;;;;40.07;25.87;;;11.60;93.70;;;;;;12915779;23;20170;-80
2022/03/16 04:43:33;;;;;;;27.83;16.90;;;11.20;94.20;;;;;;12916661;23;20190;-80
2022/03/16 04:48:36;;;;;;;20.20;13.13;;;11.30;94.50;;;;;;12915110;23;20224;-80
2022/03/16 04:53:38;;;;;;;17.60;12.53;;;11.90;93.50;;;;;;12912069;23;20558;-80
2022/03/16 04:58:41;;;;;;;50.50;29.70;;;12.10;93.00;;;;;;12915569;23;20166;-80
2022/03/16 05:03:45;;;;;;;25.13;15.90;;;12.30;89.70;;;;;;12915079;23;20525;-80
2022/03/16 05:08:48;;;;;;;40.97;26.03;;;12.10;91.60;;;;;;12915960;23;20178;-80
2022/03/16 05:13:50;;;;;;;18.70;13.60;;;12.10;91.90;;;;;;12914289;23;20186;-80
2022/03/16 05:18:53;;;;;;;35.53;22.07;;;12.40;91.90;;;;;;12889192;23;20178;-80
2022/03/16 05:23:55;;;;;;;17.57;12.50;;;12.40;91.20;;;;;;12914394;23;20190;-80
2022/03/16 05:28:58;;;;;;;53.33;34.60;;;12.40;91.40;;;;;;12914182;23;20493;-80
2022/03/16 05:34:01;;;;;;;63.43;37.03;;;12.20;90.10;;;;;;12917042;23;20174;-80
2022/03/16 05:39:04;;;;;;;41.90;25.57;;;12.20;90.50;;;;;;12888968;23;20174;-80
2022/03/16 05:44:07;;;;;;;23.07;15.43;;;11.70;90.90;;;;;;12926578;23;20198;-80
2022/03/16 05:49:10;;;;;;;62.73;38.87;;;11.10;92.30;;;;;;12914452;23;20166;-83
2022/03/16 05:54:12;;;;;;;57.20;34.07;;;11.90;89.90;;;;;;12918395;23;20197;-81
2022/03/16 05:59:15;;;;;;;54.97;33.00;;;10.60;92.40;;;;;;12920484;23;20178;-80
2022/03/16 06:04:17;;;;;;;69.57;39.67;;;11.40;91.80;;;;;;12920695;23;20236;-80
2022/03/16 06:09:20;;;;;;;14.73;11.20;;;10.30;92.50;;;;;;12920403;23;20208;-80
2022/03/16 06:14:22;;;;;;;47.23;27.50;;;12.10;92.90;;;;;;12918063;23;20525;-80
2022/03/16 06:19:25;;;;;;;55.10;34.47;;;12.70;88.30;;;;;;12935275;23;20596;-80
2022/03/16 06:24:27;;;;;;;60.00;35.43;;;13.20;85.30;;;;;;12918634;23;20685;-80
2022/03/16 06:29:30;;;;;;;64.40;39.77;;;12.50;85.70;;;;;;12929929;23;20486;-79
2022/03/16 06:34:33;;;;;;;70.27;43.83;;;11.50;88.30;;;;;;12893820;23;20177;-80
2022/03/16 06:39:35;;;;;;;42.23;25.43;;;7.20;99.90;;;;;;12920506;23;20168;-80
2022/03/16 06:44:38;;;;;;;61.63;37.37;;;11.60;99.90;;;;;;12920170;23;20201;-79
2022/03/16 06:49:40;;;;;;;52.07;33.47;;;12.20;92.90;;;;;;12939098;23;20170;-80
2022/03/16 06:54:43;;;;;;;72.57;43.23;;;12.30;91.70;;;;;;12920189;23;20231;-79
2022/03/16 06:59:45;;;;;;;59.70;35.77;;;11.90;91.20;;;;;;12918177;23;20174;-79
2022/03/16 07:04:47;;;;;;;50.30;30.93;;;12.10;91.50;;;;;;12917826;23;20186;-79
2022/03/16 07:09:50;;;;;;;64.37;40.23;;;11.90;91.80;;;;;;12916821;23;20544;-79
2022/03/16 07:14:52;;;;;;;72.87;42.53;;;11.70;91.90;;;;;;12918056;23;20307;-80
2022/03/16 07:19:55;;;;;;;67.77;42.03;;;10.10;93.50;;;;;;12916779;23;20177;-79
2022/03/16 07:24:58;;;;;;;72.83;42.00;;;10.00;95.70;;;;;;12918589;23;20215;-80
2022/03/16 07:30:01;;;;;;;71.47;41.97;;;9.40;98.10;;;;;;12919008;23;20174;-79
2022/03/16 07:35:05;;;;;;;67.97;39.43;;;9.00;99.90;;;;;;12892697;23;20182;-79
2022/03/16 07:40:08;;;;;;;75.83;44.90;;;11.00;99.30;;;;;;12935709;23;20255;-79
2022/03/16 07:45:10;;;;;;;70.13;37.83;;;10.90;95.00;;;;;;12916000;23;20665;-79
2022/03/16 07:50:13;;;;;;;71.43;43.50;;;9.20;99.90;;;;;;12913942;23;20230;-79
2022/03/16 07:55:16;;;;;;;63.50;37.43;;;9.20;99.90;;;;;;12916872;23;20713;-79
2022/03/16 08:00:19;;;;;;;74.93;44.00;;;9.10;99.90;;;;;;12918350;23;20175;-79
2022/03/16 08:05:21;;;;;;;76.30;43.87;;;8.90;99.90;;;;;;12917364;23;20191;-81
2022/03/16 08:10:24;;;;;;;72.23;43.43;;;9.20;99.90;;;;;;12918965;23;20194;-80
2022/03/16 08:15:26;;;;;;;81.63;44.07;;;8.70;99.90;;;;;;12918750;23;20221;-81
2022/03/16 08:20:29;;;;;;;79.10;45.70;;;8.20;99.90;;;;;;12918461;23;20197;-81
2022/03/16 08:25:32;;;;;;;83.43;46.83;;;8.40;99.90;;;;;;12917679;23;20186;-80
2022/03/16 08:30:34;;;;;;;68.50;38.87;;;8.40;99.90;;;;;;12918670;23;20217;-81
2022/03/16 08:35:37;;;;;;;75.67;44.90;;;9.20;99.90;;;;;;12916987;23;20201;-79
2022/03/16 08:40:41;;;;;;;79.10;47.57;;;9.00;99.90;;;;;;12918592;23;20166;-80
2022/03/16 08:45:44;;;;;;;73.00;42.10;;;8.80;99.90;;;;;;12917537;23;20243;-80
2022/03/16 08:50:47;;;;;;;416.77;80.13;;;9.80;99.90;;;;;;12917796;23;20198;-80
2022/03/16 08:55:49;;;;;;;77.27;46.50;;;9.80;99.40;;;;;;12917539;23;20479;-80
2022/03/16 09:00:52;;;;;;;74.77;44.40;;;8.70;99.90;;;;;;12921851;23;20562;-80
2022/03/16 09:05:54;;;;;;;69.87;41.83;;;9.10;99.90;;;;;;12936835;23;20186;-79
2022/03/16 09:10:57;;;;;;;72.30;43.00;;;10.90;98.20;;;;;;12918403;23;20177;-79
2022/03/16 09:16:01;;;;;;;58.23;34.63;;;10.90;96.60;;;;;;12918478;23;20184;-80
2022/03/16 09:21:04;;;;;;;70.67;42.90;;;11.20;97.00;;;;;;12892981;23;20226;-79
2022/03/16 09:26:07;;;;;;;76.00;41.73;;;10.40;98.30;;;;;;12919247;23;20560;-80
2022/03/16 09:31:09;;;;;;;75.10;44.50;;;10.40;98.70;;;;;;12919718;23;20171;-78
2022/03/16 09:36:12;;;;;;;77.20;44.90;;;11.50;96.00;;;;;;12918120;23;20214;-79
2022/03/16 09:41:15;;;;;;;69.70;43.40;;;10.00;98.10;;;;;;12938720;23;20169;-79
2022/03/16 09:46:22;;;;;;;68.80;44.33;;;11.50;94.50;;;;;;12922544;23;20533;-79
2022/03/16 09:51:34;;;;;;;73.13;42.73;;;11.60;94.00;;;;;;12936796;23;20529;-79
2022/03/16 09:56:38;;;;;;;56.93;32.37;;;11.30;93.40;;;;;;12940188;23;20454;-79
2022/03/16 10:01:42;;;;;;;62.97;40.20;;;11.10;96.10;;;;;;12922479;23;20174;-79
2022/03/16 10:06:46;;;;;;;55.50;34.87;;;11.40;92.60;;;;;;12941527;23;20185;-78
2022/03/16 10:22:31;;;;;;;31.90;20.07;;;11.50;94.50;;;;;;12941043;23;20169;-80
2022/03/16 10:27:37;;;;;;;32.10;21.97;;;12.80;93.00;;;;;;12921151;23;20652;-79
2022/03/16 10:32:53;;;;;;;49.53;32.10;;;12.40;92.00;;;;;;12938912;23;20174;-79
2022/03/16 10:38:10;;;;;;;41.47;27.13;;;12.80;85.40;;;;;;12936993;23;20230;-79
2022/03/16 10:48:38;;;;;;;51.33;32.60;;;14.10;81.80;;;;;;12939686;23;20236;-79
2022/03/16 10:53:43;;;;;;;52.80;34.67;;;12.50;79.30;;;;;;12919615;23;20216;-79
2022/03/16 10:58:48;;;;;;;25.67;17.53;;;12.20;82.50;;;;;;12920398;23;20246;-80
2022/03/16 11:03:52;;;;;;;34.83;22.00;;;13.40;89.00;;;;;;12938654;23;20193;-80
2022/03/16 11:08:55;;;;;;;37.50;24.97;;;13.80;79.10;;;;;;12919514;23;20190;-80
2022/03/16 11:13:58;;;;;;;36.20;25.13;;;13.00;69.10;;;;;;12920370;23;20225;-79
2022/03/16 11:19:03;;;;;;;29.40;20.33;;;12.70;76.50;;;;;;12920177;23;20216;-79
2022/03/16 11:24:17;;;;;;;36.30;23.70;;;12.50;76.40;;;;;;12918686;23;20633;-79
2022/03/16 11:29:42;;;;;;;23.23;15.23;;;13.50;71.60;;;;;;12919372;23;20527;-79
2022/03/16 11:34:59;;;;;;;35.20;23.67;;;13.50;86.00;;;;;;12919097;23;20652;-79
2022/03/16 11:40:10;;;;;;;33.73;22.87;;;13.50;74.00;;;;;;12938147;23;20501;-79
2022/03/16 11:45:38;;;;;;;30.10;22.17;;;13.00;65.90;;;;;;12927554;23;20190;-79
2022/03/16 11:50:41;;;;;;;39.13;25.87;;;14.00;75.60;;;;;;12936100;23;20216;-80
2022/03/16 11:55:49;;;;;;;30.30;22.03;;;14.90;66.00;;;;;;12919796;23;20236;-79
2022/03/16 12:01:31;;;;;;;32.50;20.40;;;14.90;71.70;;;;;;12919225;23;20185;-79
2022/03/16 12:06:56;;;;;;;43.87;27.13;;;14.90;77.00;;;;;;12918934;23;20198;-79
2022/03/16 12:17:27;;;;;;;23.07;15.97;;;14.00;70.60;;;;;;12938475;23;20170;-79
2022/03/16 12:22:36;;;;;;;43.97;26.23;;;13.60;78.90;;;;;;12918270;23;20170;-79
2022/03/16 12:33:00;;;;;;;17.50;13.33;;;14.70;69.10;;;;;;12937970;23;20162;-79
2022/03/16 12:38:08;;;;;;;15.63;12.03;;;13.60;82.50;;;;;;12918358;23;20224;-79
2022/03/16 12:43:10;;;;;;;41.67;25.60;;;14.50;77.20;;;;;;12915654;23;20206;-79
2022/03/16 12:48:14;;;;;;;23.60;17.23;;;13.40;64.70;;;;;;12917769;23;20499;-79
2022/03/16 12:53:44;;;;;;;23.43;17.43;;;14.60;72.40;;;;;;12918782;23;20166;-79
2022/03/16 12:58:54;;;;;;;38.57;26.60;;;13.60;71.10;;;;;;12918356;23;20629;-79
2022/03/16 13:04:00;;;;;;;39.47;26.43;;;12.70;67.60;;;;;;12935028;23;20637;-79
2022/03/16 13:09:07;;;;;;;40.23;26.70;;;12.40;70.10;;;;;;12918242;23;20213;-79
2022/03/16 13:14:21;;;;;;;32.90;22.37;;;12.90;75.20;;;;;;12918867;23;20171;-79
2022/03/16 13:19:27;;;;;;;37.30;25.60;;;12.90;74.20;;;;;;12935739;23;20177;-79
2022/03/16 13:24:37;;;;;;;29.43;20.90;;;13.70;65.50;;;;;;12916643;23;20170;-79
2022/03/16 13:29:44;;;;;;;17.77;13.83;;;13.20;65.80;;;;;;12927551;23;20244;-79
2022/03/16 13:34:49;;;;;;;19.90;14.20;;;14.50;77.60;;;;;;12935668;23;20208;-79
2022/03/16 13:39:59;;;;;;;34.80;24.53;;;14.50;72.10;;;;;;12890761;23;20167;-79
2022/03/16 13:45:26;;;;;;;71.47;28.67;;;13.70;63.20;;;;;;12924202;23;20236;-79
2022/03/16 13:50:29;;;;;;;55.30;26.50;;;13.10;65.40;;;;;;12935650;23;20202;-80
2022/03/16 13:55:34;;;;;;;41.00;24.80;;;12.30;66.00;;;;;;12917354;23;20173;-79
2022/03/16 14:00:44;;;;;;;27.37;18.37;;;12.00;66.40;;;;;;12917249;23;20185;-79
2022/03/16 14:05:47;;;;;;;33.90;24.97;;;12.60;72.10;;;;;;12933322;23;20237;-79
2022/03/16 14:10:51;;;;;;;45.90;29.33;;;12.60;66.90;;;;;;12915497;23;20177;-79
2022/03/16 14:16:14;;;;;;;179.53;46.03;;;12.60;67.90;;;;;;12920881;23;20645;-79
2022/03/16 14:21:17;;;;;;;44.77;28.43;;;12.30;64.20;;;;;;12917815;23;20174;-79
2022/03/16 14:26:20;;;;;;;48.40;29.17;;;12.50;68.30;;;;;;12918714;23;20197;-79
2022/03/16 14:31:24;;;;;;;46.40;30.47;;;12.90;63.80;;;;;;12919497;23;20185;-79
2022/03/16 14:36:27;;;;;;;31.47;21.63;;;13.80;65.30;;;;;;12919777;23;20177;-79
2022/03/16 14:41:30;;;;;;;31.50;20.73;;;14.60;67.90;;;;;;12920631;23;20166;-79
2022/03/16 14:46:32;;;;;;;41.83;27.90;;;13.90;69.40;;;;;;12920216;23;20660;-79
2022/03/16 14:51:35;;;;;;;42.13;27.00;;;13.40;62.60;;;;;;12918409;23;20212;-79
2022/03/16 14:56:38;;;;;;;41.20;26.53;;;13.30;68.30;;;;;;12919932;23;20281;-80
2022/03/16 15:01:42;;;;;;;47.17;29.73;;;13.10;70.80;;;;;;12919804;23;20171;-80
2022/03/16 15:06:45;;;;;;;28.70;20.33;;;12.70;63.10;;;;;;12936414;23;20190;-80
2022/03/16 15:11:47;;;;;;;37.17;24.43;;;13.10;69.90;;;;;;12918505;23;20167;-80
2022/03/16 15:16:49;;;;;;;32.50;23.90;;;13.50;66.90;;;;;;12918317;23;20232;-79
2022/03/16 15:21:52;;;;;;;41.20;25.17;;;13.50;65.80;;;;;;12919237;23;20684;-79
2022/03/16 15:26:56;;;;;;;43.63;29.90;;;14.00;66.00;;;;;;12917613;23;20191;-80
2022/03/16 15:32:01;;;;;;;32.80;23.43;;;13.40;59.60;;;;;;12917247;23;20178;-79
2022/03/16 15:37:04;;;;;;;41.40;28.97;;;13.80;66.60;;;;;;12934069;23;20513;-80
2022/03/16 15:47:31;;;;;;;46.30;27.77;;;13.50;60.10;;;;;;12856508;23;20247;-79
2022/03/16 15:52:35;;;;;;;51.43;30.77;;;13.20;62.30;;;;;;12830405;23;20170;-80
2022/03/16 15:57:44;;;;;;;38.57;26.27;;;13.20;63.20;;;;;;12828136;23;20233;-80
2022/03/16 16:02:50;;;;;;;40.00;26.97;;;12.60;63.60;;;;;;12874591;23;20163;-79
2022/03/16 16:07:54;;;;;;;34.83;22.53;;;13.20;63.60;;;;;;12873806;23;20191;-79
2022/03/16 16:12:56;;;;;;;37.60;23.53;;;13.00;66.50;;;;;;12855599;23;20622;-79
2022/03/16 16:17:59;;;;;;;31.63;21.90;;;12.80;64.10;;;;;;12871262;23;20238;-79
2022/03/16 16:23:02;;;;;;;45.67;22.60;;;12.70;66.50;;;;;;12827991;23;20175;-82
2022/03/16 16:28:04;;;;;;;57.13;35.17;;;13.20;67.60;;;;;;12855201;23;20240;-81
2022/03/16 16:33:07;;;;;;;57.53;35.50;;;10.30;67.80;;;;;;12855777;23;20291;-85
2022/03/16 16:38:14;;;;;;;55.37;35.47;;;9.30;71.30;;;;;;12827946;23;20173;-83
2022/03/16 16:43:17;;;;;;;61.97;40.73;;;8.80;74.10;;;;;;12841879;23;20206;-82
2022/03/16 16:48:23;;;;;;;52.63;34.07;;;8.50;75.20;;;;;;12915053;23;20190;-83
2022/03/16 16:53:26;;;;;;;50.07;30.57;;;8.20;75.90;;;;;;12917048;23;20163;-81
2022/03/16 16:58:29;;;;;;;44.13;29.23;;;8.10;76.30;;;;;;12915602;23;20170;-80
2022/03/16 17:03:32;;;;;;;52.20;31.00;;;8.10;77.00;;;;;;12917456;23;20346;-81
2022/03/16 17:08:36;;;;;;;58.03;36.13;;;8.10;76.50;;;;;;12915390;23;20233;-81
2022/03/16 17:13:39;;;;;;;63.97;36.23;;;8.10;76.30;;;;;;12916545;23;20170;-81
2022/03/16 17:18:41;;;;;;;41.70;17.77;;;8.00;76.90;;;;;;12916750;23;20167;-82
2022/03/16 17:23:44;;;;;;;25.53;15.77;;;9.40;92.60;;;;;;12915788;23;20171;-81
2022/03/16 17:28:47;;;;;;;33.20;14.20;;;10.70;90.70;;;;;;12915213;23;20229;-82
2022/03/16 17:33:54;;;;;;;27.23;13.50;;;11.50;87.60;;;;;;12915374;23;20173;-81
2022/03/16 17:38:57;;;;;;;43.67;25.17;;;12.30;84.30;;;;;;12932949;23;20192;-81
2022/03/16 17:49:21;;;;;;;24.80;13.57;;;13.00;81.30;;;;;;12941229;23;20629;-82
2022/03/16 17:54:23;;;;;;;20.43;11.30;;;13.30;80.00;;;;;;12923385;23;20193;-84
2022/03/16 17:59:26;;;;;;;22.47;14.10;;;13.40;79.50;;;;;;12922296;23;20821;-83
2022/03/16 18:04:28;;;;;;;20.27;12.57;;;13.60;78.70;;;;;;12922954;23;20167;-82
2022/03/16 18:12:58;;;;;;;19.20;14.17;;;13.40;78.90;;;;;;12923778;23;20256;-82
2022/03/16 18:14:53;;;;;;;16.37;11.63;;;13.40;78.50;;;;;;12922901;23;20248;-82
2022/03/16 18:19:56;;;;;;;37.67;25.67;;;13.40;79.40;;;;;;12921822;23;20193;-82
2022/03/16 18:24:59;;;;;;;45.00;28.60;;;13.30;75.10;;;;;;12921747;23;20227;-81
2022/03/16 18:30:04;;;;;;;43.67;30.37;;;12.60;74.80;;;;;;12921803;23;20249;-82
2022/03/16 18:35:08;;;;;;;53.40;35.87;;;11.50;76.70;;;;;;12918970;23;20166;-82
2022/03/16 18:40:18;;;;;;;31.47;16.23;;;11.60;78.30;;;;;;12938508;23;20196;-81
2022/03/16 18:45:21;;;;;;;35.70;24.57;;;12.10;81.30;;;;;;12920138;23;20264;-81
2022/03/16 18:50:24;;;;;;;48.80;32.03;;;12.20;80.00;;;;;;12937765;23;20187;-82
2022/03/16 18:55:30;;;;;;;13.63;10.90;;;11.80;78.50;;;;;;12938372;23;20167;-81
2022/03/16 19:00:34;;;;;;;24.07;16.53;;;12.60;83.60;;;;;;12919284;23;20646;-82
2022/03/16 19:05:41;;;;;;;23.20;15.87;;;12.50;81.70;;;;;;12917741;23;20220;-81
2022/03/16 19:10:44;;;;;;;21.57;16.50;;;12.30;80.80;;;;;;12937954;23;20248;-82
2022/03/16 19:15:47;;;;;;;20.63;13.67;;;12.40;82.80;;;;;;12926520;23;20240;-82
2022/03/16 19:20:50;;;;;;;29.40;20.20;;;12.20;82.30;;;;;;12919141;23;20171;-83
2022/03/16 19:25:52;;;;;;;58.47;36.07;;;12.10;81.00;;;;;;12919411;23;20229;-82
2022/03/16 19:31:01;;;;;;;66.93;41.40;;;11.70;79.80;;;;;;12918240;23;20220;-84
2022/03/16 19:36:04;;;;;;;67.53;40.60;;;8.40;82.50;;;;;;12919048;23;20168;-82
2022/03/16 19:41:11;;;;;;;77.17;44.67;;;6.00;96.50;;;;;;12918838;23;20167;-82
2022/03/16 19:46:13;;;;;;;80.80;45.00;;;5.30;99.90;;;;;;12917856;23;20198;-82
2022/03/16 19:51:17;;;;;;;43.33;27.33;;;5.10;99.90;;;;;;12917517;23;20190;-82
2022/03/16 19:56:19;;;;;;;35.40;21.47;;;;;;;;;;12918540;23;20193;-81
2022/03/16 20:01:31;;;;;;;34.27;21.37;;;8.80;99.90;;;;;;12923719;23;20216;-84
2022/03/16 20:06:34;;;;;;;36.20;23.37;;;9.70;99.90;;;;;;12935879;23;20164;-81
2022/03/16 20:11:38;;;;;;;56.30;33.67;;;9.90;99.90;;;;;;12917266;23;20170;-81
2022/03/16 20:16:44;;;;;;;58.33;32.87;;;10.30;99.40;;;;;;12916135;23;20594;-81
2022/03/16 20:21:48;;;;;;;29.30;21.30;;;9.80;99.80;;;;;;12916172;23;20232;-81
2022/03/16 20:26:51;;;;;;;48.87;32.00;;;10.00;99.90;;;;;;12916771;23;20174;-82
2022/03/16 20:31:53;;;;;;;28.97;18.17;;;9.80;94.80;;;;;;12917553;23;20220;-82
2022/03/16 20:36:56;;;;;;;27.17;17.87;;;11.70;99.90;;;;;;12916270;23;20201;-82
2022/03/16 20:41:59;;;;;;;41.77;25.80;;;12.20;96.70;;;;;;12915948;23;20571;-83
2022/03/16 20:47:01;;;;;;;27.97;17.87;;;12.60;92.70;;;;;;12917656;23;20194;-83
2022/03/16 20:52:06;;;;;;;34.97;22.10;;;12.40;93.90;;;;;;12917810;23;20478;-82
2022/03/16 20:57:09;;;;;;;24.27;17.17;;;12.60;92.20;;;;;;12917540;23;20649;-83
2022/03/16 21:02:13;;;;;;;21.10;15.47;;;12.90;92.30;;;;;;12915363;23;20232;-82
2022/03/16 21:07:18;;;;;;;19.63;14.47;;;13.30;91.20;;;;;;12915231;23;20182;-79
2022/03/16 21:12:20;;;;;;;34.83;21.87;;;13.60;90.20;;;;;;12915883;23;20168;-80
2022/03/16 21:17:23;;;;;;;21.10;15.33;;;13.80;87.80;;;;;;12915982;23;20170;-81
2022/03/16 21:22:26;;;;;;;21.23;15.23;;;13.80;87.60;;;;;;12934585;23;20363;-86
2022/03/16 21:27:29;;;;;;;49.67;30.57;;;13.90;86.60;;;;;;12917245;23;20237;-82
2022/03/16 21:32:31;;;;;;;22.03;15.67;;;13.80;80.10;;;;;;12915134;23;20490;-87
2022/03/16 21:37:34;;;;;;;45.23;29.07;;;14.00;85.40;;;;;;12915333;23;20178;-83
2022/03/16 21:42:46;;;;;;;30.40;19.77;;;14.00;82.10;;;;;;12914948;23;20203;-83
2022/03/16 21:47:49;;;;;;;19.10;14.07;;;13.70;84.30;;;;;;12915748;23;20220;-82
2022/03/16 21:52:53;;;;;;;27.33;19.07;;;13.70;85.60;;;;;;12916276;23;20193;-81
2022/03/16 21:57:56;;;;;;;19.23;14.57;;;14.10;81.50;;;;;;12915248;23;20179;-81
2022/03/16 22:02:58;;;;;;;59.50;35.73;;;14.30;82.60;;;;;;12916704;23;20499;-81
2022/03/16 22:08:01;;;;;;;43.20;25.97;;;12.90;73.30;;;;;;12916768;23;20186;-80
2022/03/16 22:13:04;;;;;;;26.77;17.37;;;11.40;90.00;;;;;;12916924;23;20193;-81
2022/03/16 22:18:09;;;;;;;22.33;14.60;;;11.90;90.50;;;;;;12913468;23;20232;-81
2022/03/16 22:23:11;;;;;;;18.20;14.20;;;12.40;90.60;;;;;;12915467;23;20166;-84
2022/03/16 22:28:15;;;;;;;29.23;19.30;;;12.30;90.00;;;;;;12913873;23;20198;-84
2022/03/16 22:33:18;;;;;;;28.70;19.10;;;12.50;88.10;;;;;;12933830;23;20524;-82
2022/03/16 22:38:21;;;;;;;28.93;19.43;;;12.90;87.80;;;;;;12916564;23;20168;-81
2022/03/16 22:43:23;;;;;;;28.90;19.10;;;13.20;85.80;;;;;;12918621;23;20190;-81
2022/03/16 22:48:26;;;;;;;17.80;14.07;;;13.30;84.30;;;;;;12937324;23;20658;-80
2022/03/16 22:53:28;;;;;;;20.23;14.87;;;13.50;85.40;;;;;;12918037;23;20163;-81
2022/03/16 22:58:31;;;;;;;32.70;21.40;;;13.40;84.30;;;;;;12915490;23;20171;-81
2022/03/16 23:03:34;;;;;;;17.13;13.30;;;13.30;83.80;;;;;;12915747;23;20200;-81
2022/03/16 23:08:38;;;;;;;34.47;21.53;;;13.40;84.50;;;;;;12891455;23;20199;-81
2022/03/16 23:13:41;;;;;;;41.63;26.07;;;13.10;84.10;;;;;;12916082;23;20595;-81
2022/03/16 23:18:43;;;;;;;29.97;20.10;;;11.40;87.30;;;;;;12935897;23;20196;-81
2022/03/16 23:23:46;;;;;;;41.93;26.73;;;11.00;91.10;;;;;;12916998;23;20217;-81
2022/03/16 23:28:49;;;;;;;30.03;19.70;;;10.80;88.20;;;;;;12914956;23;20248;-81
2022/03/16 23:33:52;;;;;;;56.67;33.10;;;11.20;91.10;;;;;;12916433;23;20236;-81
2022/03/16 23:38:55;;;;;;;47.00;28.80;;;9.90;89.50;;;;;;12915632;23;20232;-81
2022/03/16 23:43:57;;;;;;;24.10;17.33;;;10.20;94.00;;;;;;12916885;23;20717;-81
2022/03/16 23:49:02;;;;;;;40.93;24.67;;;10.50;93.90;;;;;;12915790;23;20190;-81
2022/03/16 23:54:04;;;;;;;36.53;21.43;;;10.90;93.00;;;;;;12890007;23;20174;-81
2022/03/16 23:59:06;;;;;;;22.60;15.60;;;11.00;92.60;;;;;;12917480;23;20232;-81
